Time;durP1;ratioP1;P1;durP2;ratioP2;P2;SDS_P1;SDS_P2;PMS_P1;PMS_P2;Temp;Humidity;BMP_temperature;BMP_pressure;BME280_temperature;BME280_humidity;BME280_pressure;Samples;Min_cycle;Max_cycle;Signal;HPM_P1;HPM_P2
2022/06/02 00:01:34;;;;;;;6.22;3.15;;;;;;;18.96;100.00;101077.25;1678749;82;21184;-84
2022/06/02 00:04:19;;;;;;;7.70;3.62;;;;;;;19.09;100.00;101088.69;1715002;81;21475;-84
2022/06/02 00:06:57;;;;;;;5.87;3.22;;;;;;;19.18;100.00;101090.37;1675048;82;21583;-84
2022/06/02 00:09:54;;;;;;;7.53;3.50;;;;;;;19.24;100.00;101091.52;1715279;82;21578;-84
2022/06/02 00:12:49;;;;;;;6.10;3.62;;;;;;;19.27;100.00;101091.20;1706113;82;21016;-85
2022/06/02 00:15:40;;;;;;;9.20;3.47;;;;;;;19.31;100.00;101090.38;1713943;82;21582;-86
2022/06/02 00:18:23;;;;;;;8.23;4.00;;;;;;;19.31;100.00;101085.11;1703593;83;21580;-83
2022/06/02 00:21:15;;;;;;;3.75;3.25;;;;;;;19.24;100.00;101082.27;1750166;79;21563;-86
2022/06/02 00:24:15;;;;;;;5.17;3.70;;;;;;;19.20;100.00;101084.41;1741553;79;21125;-84
2022/06/02 00:26:53;;;;;;;6.62;3.55;;;;;;;19.19;100.00;101080.63;1748841;80;21026;-83
2022/06/02 00:29:47;;;;;;;4.35;3.62;;;;;;;19.20;100.00;101088.88;1743960;80;21780;-83
2022/06/02 00:32:39;;;;;;;5.92;3.65;;;;;;;19.20;100.00;101093.65;1742234;80;21209;-85
2022/06/02 00:35:29;;;;;;;5.53;3.55;;;;;;;19.20;100.00;101098.92;1713212;80;21100;-85
2022/06/02 00:38:04;;;;;;;4.97;3.62;;;;;;;19.15;100.00;101099.91;1695362;82;21107;-84
2022/06/02 00:40:34;;;;;;;4.37;3.40;;;;;;;19.09;100.00;101092.64;1744192;80;21090;-83
2022/06/02 00:43:33;;;;;;;6.25;3.50;;;;;;;19.02;100.00;101085.84;1687150;83;21125;-84
2022/06/02 00:46:28;;;;;;;4.83;3.40;;;;;;;18.95;100.00;101086.66;1739113;81;21646;-85
2022/06/02 00:49:21;;;;;;;4.00;3.12;;;;;;;18.87;100.00;101084.27;1710862;81;21057;-84
2022/06/02 00:52:19;;;;;;;9.35;4.30;;;;;;;18.84;100.00;101067.92;1693554;82;21180;-84
2022/06/02 00:58:10;;;;;;;8.78;4.12;;;;;;;18.77;100.00;101070.39;1676247;82;22241;-82
2022/06/02 01:00:45;;;;;;;8.20;4.62;;;;;;;18.70;100.00;101066.73;1677739;83;21694;-84
2022/06/02 01:03:23;;;;;;;10.18;4.10;;;;;;;18.54;100.00;101069.62;1662125;84;21584;-87
2022/06/02 01:06:23;;;;;;;8.53;4.42;;;;;;;18.41;100.00;101066.09;1728521;81;21057;-83
2022/06/02 01:09:25;;;;;;;5.78;4.10;;;;;;;18.35;100.00;101071.15;1737862;81;21207;-85
2022/06/02 01:12:35;;;;;;;9.50;4.10;;;;;;;18.23;100.00;101072.72;1715818;81;21794;-85
2022/06/02 01:15:31;;;;;;;9.05;4.92;;;;;;;18.15;100.00;101073.97;1719534;80;21027;-84
2022/06/02 01:18:14;;;;;;;7.45;3.75;;;;;;;18.10;100.00;101073.62;1741824;80;21129;-83
2022/06/02 01:20:51;;;;;;;4.90;4.20;;;;;;;18.11;100.00;101068.19;1684685;83;21030;-84
2022/06/02 01:23:47;;;;;;;6.75;3.42;;;;;;;18.14;100.00;101061.80;1716430;81;21100;-84
2022/06/02 01:26:32;;;;;;;8.45;3.98;;;;;;;18.18;100.00;101057.05;1732362;82;21901;-82
2022/06/02 01:29:17;;;;;;;7.08;3.90;;;;;;;18.23;100.00;101060.04;1704075;82;21129;-84
2022/06/02 01:32:08;;;;;;;5.55;4.20;;;;;;;18.23;100.00;101058.22;1737582;80;21046;-83
2022/06/02 01:35:02;;;;;;;7.62;3.95;;;;;;;18.23;100.00;101063.48;1692363;82;21058;-83
2022/06/02 01:37:42;;;;;;;6.83;4.30;;;;;;;18.25;100.00;101063.36;1733276;78;21713;-82
2022/06/02 01:40:27;;;;;;;6.12;3.42;;;;;;;18.27;100.00;101070.13;1744407;80;21691;-83
2022/06/02 01:43:12;;;;;;;7.08;3.92;;;;;;;18.27;100.00;101063.53;1685543;82;21010;-83
2022/06/02 01:45:58;;;;;;;8.55;4.25;;;;;;;18.27;100.00;101068.80;1690401;83;21517;-83
2022/06/02 01:49:01;;;;;;;6.35;3.87;;;;;;;18.20;100.00;101071.72;1712160;82;21080;-83
2022/06/02 01:52:24;;;;;;;4.78;3.70;;;;;;;18.13;100.00;101068.87;1659800;85;21970;-82
2022/06/02 01:55:02;;;;;;;5.97;3.72;;;;;;;18.13;100.00;101077.28;1725935;81;21183;-82
2022/06/02 01:57:44;;;;;;;6.85;4.47;;;;;;;18.18;100.00;101064.95;1731962;81;21096;-84
2022/06/02 02:00:17;;;;;;;6.85;4.50;;;;;;;18.17;100.00;101074.66;1738587;81;20993;-83
2022/06/02 02:03:26;;;;;;;9.08;4.30;;;;;;;18.15;100.00;101075.80;1730805;81;21199;-83
2022/06/02 02:06:21;;;;;;;8.10;4.25;;;;;;;18.18;100.00;101082.91;1694688;81;21729;-86
2022/06/02 02:09:02;;;;;;;8.68;3.85;;;;;;;18.18;100.00;101089.48;1739454;80;21101;-85
2022/06/02 02:11:53;;;;;;;7.90;4.90;;;;;;;18.15;100.00;101084.52;1740797;80;21026;-84
2022/06/02 02:14:39;;;;;;;7.22;4.72;;;;;;;18.15;100.00;101081.88;1741442;80;21082;-82
2022/06/02 02:17:42;;;;;;;8.10;5.30;;;;;;;18.11;100.00;101077.41;1696908;82;21066;-84
2022/06/02 02:20:32;;;;;;;5.87;5.22;;;;;;;18.08;100.00;101079.52;1698191;82;21094;-84
2022/06/02 02:23:26;;;;;;;6.12;5.42;;;;;;;18.03;100.00;101076.03;1699427;81;21236;-86
2022/06/02 02:26:25;;;;;;;6.17;4.62;;;;;;;17.98;100.00;101071.72;1719697;81;21074;-84
2022/06/02 02:29:08;;;;;;;9.85;5.25;;;;;;;17.94;100.00;101075.13;1722818;81;21038;-83
2022/06/02 02:32:26;;;;;;;6.33;4.97;;;;;;;17.95;100.00;101069.34;1741669;80;21140;-82
2022/06/02 02:35:38;;;;;;;5.78;5.20;;;;;;;17.94;100.00;101074.31;1733763;80;21112;-82
2022/06/02 02:38:39;;;;;;;8.35;5.42;;;;;;;17.93;100.00;101063.43;1745624;80;21250;-83
2022/06/02 02:41:11;;;;;;;6.90;4.83;;;;;;;17.94;100.00;101075.13;1705144;80;21063;-82
2022/06/02 02:43:56;;;;;;;6.53;4.87;;;;;;;18.01;100.00;101071.43;1739954;79;21053;-83
2022/06/02 02:46:59;;;;;;;6.70;5.53;;;;;;;18.08;100.00;101063.72;1707818;81;21610;-83
2022/06/02 02:49:52;;;;;;;6.67;5.37;;;;;;;18.15;100.00;101055.53;1691260;83;21042;-84
2022/06/02 02:52:46;;;;;;;8.13;5.40;;;;;;;18.25;100.00;101061.53;1711513;81;21253;-83
2022/06/02 02:55:30;;;;;;;8.00;4.70;;;;;;;18.32;100.00;101065.70;1730996;82;21081;-84
2022/06/02 02:58:10;;;;;;;8.78;4.83;;;;;;;18.33;100.00;101077.06;1722320;82;21037;-83
2022/06/02 03:01:01;;;;;;;9.58;4.97;;;;;;;18.35;100.00;101076.42;1719390;81;20959;-83
2022/06/02 03:03:39;;;;;;;7.25;5.00;;;;;;;18.36;100.00;101078.08;1720601;81;21508;-84
2022/06/02 03:06:30;;;;;;;6.53;4.55;;;;;;;18.40;100.00;101075.45;1682931;83;21204;-85
2022/06/02 03:09:08;;;;;;;6.28;4.12;;;;;;;18.41;100.00;101072.69;1734976;81;21077;-81
2022/06/02 03:12:27;;;;;;;8.18;4.90;;;;;;;18.47;100.00;101076.98;1739444;80;21082;-83
2022/06/02 03:15:23;;;;;;;7.80;5.00;;;;;;;18.49;100.00;101073.20;1710419;81;21074;-85
2022/06/02 03:18:24;;;;;;;8.58;4.85;;;;;;;18.53;100.00;101071.08;1710909;82;21114;-84
2022/06/02 03:21:19;;;;;;;7.70;5.27;;;;;;;18.57;100.00;101072.44;1742356;80;21809;-83
2022/06/02 03:24:23;;;;;;;9.83;5.60;;;;;;;18.56;100.00;101072.91;1749862;79;21535;-84
2022/06/02 03:27:19;;;;;;;5.22;4.70;;;;;;;18.56;100.00;101071.59;1745733;79;21284;-83
2022/06/02 03:29:57;;;;;;;5.62;4.78;;;;;;;18.55;100.00;101077.84;1705339;82;21129;-83
2022/06/02 03:32:42;;;;;;;6.42;4.80;;;;;;;18.58;100.00;101074.91;1752637;79;21533;-83
2022/06/02 03:35:26;;;;;;;6.67;4.87;;;;;;;18.64;100.00;101066.86;1743917;80;21142;-83
2022/06/02 03:38:05;;;;;;;7.97;5.25;;;;;;;18.68;100.00;101076.10;1742887;80;21235;-88
2022/06/02 03:41:01;;;;;;;8.43;4.67;;;;;;;18.75;100.00;101079.76;1689798;83;21032;-83
2022/06/02 03:43:37;;;;;;;8.68;4.95;;;;;;;18.82;100.00;101079.97;1730032;82;21105;-82
2022/06/02 03:46:43;;;;;;;6.92;4.67;;;;;;;18.86;100.00;101083.95;1729655;81;21025;-83
2022/06/02 03:49:21;;;;;;;10.03;4.85;;;;;;;18.90;100.00;101080.00;1746409;81;21154;-82
2022/06/02 03:52:07;;;;;;;7.42;5.15;;;;;;;18.97;100.00;101072.31;1738161;80;21562;-82
2022/06/02 03:55:16;;;;;;;8.03;4.85;;;;;;;19.07;100.00;101070.86;1705060;82;21579;-82
2022/06/02 03:58:03;;;;;;;7.08;5.03;;;;;;;19.17;100.00;101069.39;1729101;80;21061;-83
2022/06/02 04:00:45;;;;;;;7.67;4.72;;;;;;;19.33;100.00;101076.53;1734626;81;21552;-82
2022/06/02 04:03:23;;;;;;;7.47;4.55;;;;;;;19.45;100.00;101068.63;1695837;82;21235;-85
2022/06/02 04:06:21;;;;;;;6.85;4.60;;;;;;;19.57;100.00;101068.32;1762575;79;21006;-84
2022/06/02 04:09:06;;;;;;;8.28;5.20;;;;;;;19.65;100.00;101073.61;1775273;79;21077;-82
2022/06/02 04:15:22;;;;;;;8.18;4.22;;;;;;;19.88;100.00;101073.80;1769187;79;21070;-85
2022/06/02 04:18:08;;;;;;;7.80;4.20;;;;;;;20.02;100.00;101072.31;1767552;79;21141;-83
2022/06/02 04:21:14;;;;;;;7.65;3.62;;;;;;;20.16;100.00;101074.78;1754015;80;21578;-88
2022/06/02 04:24:30;;;;;;;10.30;4.30;;;;;;;20.32;100.00;101072.59;1708289;82;21180;-84
2022/06/02 04:27:24;;;;;;;10.80;3.98;;;;;;;20.46;100.00;101074.56;1760151;79;21098;-85
2022/06/02 04:30:08;;;;;;;6.53;4.50;;;;;;;20.60;100.00;101076.98;1766195;78;21035;-83
2022/06/02 04:33:08;;;;;;;6.50;3.98;;;;;;;20.76;100.00;101081.43;1741661;80;21253;-82
2022/06/02 04:35:56;;;;;;;7.20;4.35;;;;;;;20.88;100.00;101075.27;1739128;81;21022;-82
2022/06/02 04:38:53;;;;;;;8.65;4.35;;;;;;;21.05;100.00;101075.19;1739808;80;21092;-84
2022/06/02 04:41:56;;;;;;;6.87;3.87;;;;;;;21.21;100.00;101070.28;1721342;80;21090;-82
2022/06/02 04:44:45;;;;;;;6.40;3.67;;;;;;;21.36;100.00;101069.86;1748074;79;21578;-85
2022/06/02 04:47:30;;;;;;;9.70;4.03;;;;;;;21.50;100.00;101071.44;1741585;79;21312;-90
2022/06/02 04:50:23;;;;;;;6.35;4.10;;;;;;;21.65;100.00;101073.67;1742290;80;21066;-85
2022/06/02 04:53:16;;;;;;;9.55;4.85;;;;;;;21.79;100.00;101070.75;1743792;80;21113;-85
2022/06/02 04:56:12;;;;;;;8.50;4.78;;;;;;;21.91;100.00;101069.83;1740507;80;21030;-85
2022/06/02 04:59:11;;;;;;;9.48;4.83;;;;;;;22.03;100.00;101067.05;1742676;79;21638;-84
2022/06/02 05:01:58;;;;;;;8.35;4.60;;;;;;;22.17;100.00;101064.59;1740214;80;21141;-86
2022/06/02 05:04:47;;;;;;;9.38;4.12;;;;;;;22.34;100.00;101066.59;1734362;80;21046;-87
2022/06/02 05:07:23;;;;;;;16.93;4.72;;;;;;;22.45;100.00;101066.66;1736157;79;21105;-87
2022/06/02 05:10:06;;;;;;;11.83;4.62;;;;;;;22.60;100.00;101074.11;1689090;81;21058;-85
2022/06/02 05:12:54;;;;;;;8.13;4.70;;;;;;;22.73;100.00;101072.14;1724512;80;21066;-85
2022/06/02 05:16:03;;;;;;;15.20;4.40;;;;;;;22.85;100.00;101074.63;1715863;82;21150;-87
2022/06/02 05:18:41;;;;;;;8.48;4.90;;;;;;;22.96;100.00;101073.32;1708782;82;21124;-83
2022/06/02 05:21:46;;;;;;;7.67;4.50;;;;;;;23.12;100.00;101076.77;1704043;83;21027;-89
2022/06/02 05:24:47;;;;;;;8.05;4.15;;;;;;;23.23;100.00;101082.15;1687832;83;21066;-85
2022/06/02 05:27:55;;;;;;;10.15;5.03;;;;;;;23.40;100.00;101084.05;1683546;83;21579;-87
2022/06/02 05:30:45;;;;;;;5.78;4.37;;;;;;;23.54;100.00;101079.69;1693953;83;22135;-85
2022/06/02 05:33:44;;;;;;;8.45;4.42;;;;;;;23.71;100.00;101084.23;1684392;84;21029;-86
2022/06/02 05:36:35;;;;;;;11.08;4.53;;;;;;;23.86;100.00;101085.48;1677566;84;21636;-89
2022/06/02 05:39:27;;;;;;;13.10;4.95;;;;;;;24.02;100.00;101087.06;1665403;83;21073;-87
2022/06/02 05:42:18;;;;;;;8.73;3.98;;;;;;;24.13;100.00;101087.03;1708776;81;21768;-88
2022/06/02 05:45:00;;;;;;;12.75;4.78;;;;;;;24.28;100.00;101085.61;1700867;82;21179;-88
2022/06/02 05:47:42;;;;;;;6.33;4.37;;;;;;;24.42;100.00;101086.00;1717441;82;21058;-88
2022/06/02 05:50:48;;;;;;;6.75;4.30;;;;;;;24.58;100.00;101084.34;1693415;83;21099;-87
2022/06/02 05:53:53;;;;;;;11.63;5.50;;;;;;;24.76;100.00;101079.56;1703329;81;21070;-87
2022/06/02 05:56:35;;;;;;;8.80;4.80;;;;;;;24.92;100.00;101077.05;1717822;82;21087;-87
2022/06/02 05:59:08;;;;;;;;;;;;;;;25.10;100.00;101079.98;1731002;81;21093;-87
2022/06/02 06:02:20;;;;;;;7.05;4.53;;;;;;;25.31;100.00;101076.84;1713214;81;20147;-87
2022/06/02 06:05:15;;;;;;;8.40;4.95;;;;;;;25.46;100.00;101067.37;1751124;80;21076;-87
2022/06/02 06:07:57;;;;;;;10.15;4.45;;;;;;;25.59;100.00;101070.04;1757608;79;21097;-89
2022/06/02 06:11:04;;;;;;;12.55;5.08;;;;;;;25.74;100.00;101070.34;1708109;81;21136;-88
2022/06/02 06:14:04;;;;;;;12.95;4.22;;;;;;;25.83;100.00;101067.28;1688996;80;20935;-89
2022/06/02 06:16:44;;;;;;;10.05;4.05;;;;;;;26.03;100.00;101070.96;1767322;78;21149;-89
2022/06/02 06:19:40;;;;;;;11.83;3.97;;;;;;;26.27;100.00;101071.67;1768498;79;21566;-88
2022/06/02 06:22:38;;;;;;;9.63;3.70;;;;;;;26.48;100.00;101068.95;1726462;81;21107;-88
2022/06/02 06:25:37;;;;;;;7.15;3.52;;;;;;;26.68;100.00;101079.02;1683971;83;21143;-87
2022/06/02 06:28:12;;;;;;;7.95;3.42;;;;;;;26.86;100.00;101078.88;1746509;79;21547;-89
2022/06/02 06:31:19;;;;;;;10.28;3.98;;;;;;;27.00;100.00;101078.31;1724761;81;21073;-89
2022/06/02 06:34:06;;;;;;;5.00;3.50;;;;;;;27.11;100.00;101070.94;1722850;81;21237;-89
2022/06/02 06:36:38;;;;;;;8.60;3.92;;;;;;;27.25;100.00;101071.67;1703731;82;21085;-89
2022/06/02 06:39:22;;;;;;;5.80;3.40;;;;;;;27.39;100.00;101070.55;1718972;81;21205;-89
2022/06/02 06:42:11;;;;;;;6.22;3.42;;;;;;;27.50;100.00;101076.27;1732591;80;21240;-90
2022/06/02 06:44:46;;;;;;;;;;;;;;;27.60;100.00;101073.10;1714212;80;21030;-89
2022/06/02 06:47:34;;;;;;;8.60;3.55;;;;;;;27.72;100.00;101080.73;1719978;81;20275;-90
2022/06/02 06:50:19;;;;;;;7.40;3.80;;;;;;;27.84;100.00;101070.94;1713827;81;21092;-89
2022/06/02 06:53:29;;;;;;;6.22;3.33;;;;;;;28.00;100.00;101076.23;1714654;80;21072;-89
2022/06/02 06:56:02;;;;;;;8.87;3.57;;;;;;;28.12;100.00;101083.58;1721696;80;21196;-92
2022/06/02 06:58:54;;;;;;;10.85;3.60;;;;;;;28.25;100.00;101080.75;1706732;81;21100;-90
2022/06/02 07:01:54;;;;;;;8.95;4.03;;;;;;;28.39;100.00;101079.30;1692250;82;21019;-91
2022/06/02 07:04:28;;;;;;;10.40;3.42;;;;;;;28.50;100.00;101077.19;1756617;79;21048;-92
2022/06/02 07:07:09;;;;;;;7.35;3.67;;;;;;;28.65;100.00;101075.48;1731550;79;21094;-90
2022/06/02 07:10:30;;;;;;;5.83;3.10;;;;;;;28.76;100.00;101072.59;1747945;80;21158;-90
2022/06/02 07:13:31;;;;;;;5.03;3.08;;;;;;;28.83;100.00;101071.97;1742739;79;21142;-89
2022/06/02 07:16:12;;;;;;;7.05;3.37;;;;;;;28.92;100.00;101072.49;1696224;81;21112;-91
2022/06/02 07:19:09;;;;;;;8.13;3.42;;;;;;;28.99;100.00;101073.72;1715976;81;21203;-92
2022/06/02 07:22:02;;;;;;;7.83;3.45;;;;;;;29.03;99.16;101072.23;1776604;79;21063;-90
2022/06/02 07:24:40;;;;;;;8.75;3.45;;;;;;;29.12;100.00;101077.04;1726140;81;21886;-90
2022/06/02 07:27:37;;;;;;;11.12;3.75;;;;;;;29.26;100.00;101078.17;1709988;81;21197;-90
2022/06/02 07:30:54;;;;;;;12.13;3.75;;;;;;;29.37;100.00;101076.59;1693698;81;21149;-90
2022/06/02 07:33:30;;;;;;;8.88;3.25;;;;;;;29.53;100.00;101077.80;1744651;79;20990;-91
2022/06/02 07:36:11;;;;;;;8.05;3.15;;;;;;;29.70;100.00;101068.54;1770734;79;21091;-90
2022/06/02 07:39:15;;;;;;;7.53;4.22;;;;;;;29.80;100.00;101070.13;1711769;81;21831;-92
2022/06/02 07:42:19;;;;;;;8.48;5.33;;;;;;;29.90;97.02;101065.51;1700614;81;21055;-91
2022/06/02 07:44:54;;;;;;;26.37;16.45;;;;;;;29.98;91.65;101069.75;1697732;81;21052;-93
2022/06/02 07:48:07;;;;;;;11.25;5.45;;;;;;;30.05;88.13;101069.10;1744067;79;21552;-92
2022/06/02 07:50:40;;;;;;;10.63;3.85;;;;;;;30.09;95.88;101072.94;1766093;79;21111;-91
2022/06/02 07:53:19;;;;;;;8.88;3.47;;;;;;;30.11;85.69;101071.37;1752036;80;21263;-94
2022/06/02 07:55:58;;;;;;;7.78;3.33;;;;;;;30.12;87.21;101064.42;1735130;79;21070;-92
2022/06/02 07:58:55;;;;;;;9.60;4.03;;;;;;;30.19;90.44;101067.80;1763437;79;21059;-91
2022/06/02 08:01:54;;;;;;;8.20;2.87;;;;;;;30.28;94.98;101061.55;1736314;79;21129;-92
2022/06/02 08:04:50;;;;;;;5.37;3.17;;;;;;;30.36;90.11;101065.21;1689400;81;21105;-92
2022/06/02 08:07:50;;;;;;;6.72;3.00;;;;;;;30.41;89.51;101055.06;1734092;79;21158;-92
2022/06/02 08:10:56;;;;;;;8.93;3.10;;;;;;;30.47;95.60;101063.55;1749906;79;21152;-91
2022/06/02 08:13:38;;;;;;;8.58;3.62;;;;;;;30.55;85.34;101057.53;1757308;78;21061;-91
2022/06/02 08:16:17;;;;;;;5.67;3.02;;;;;;;30.63;83.10;101058.50;1775298;79;21411;-91
2022/06/02 08:19:27;;;;;;;9.08;3.58;;;;;;;30.74;90.36;101058.97;1787161;78;21107;-93
2022/06/02 08:22:01;;;;;;;8.95;3.60;;;;;;;30.79;85.83;101057.73;1713942;80;21173;-92
2022/06/02 08:24:46;;;;;;;7.37;3.45;;;;;;;30.87;80.44;101053.83;1722074;80;21006;-93
2022/06/02 08:30:32;;;;;;;7.50;3.30;;;;;;;30.96;86.07;101052.39;1735199;80;21133;-92
2022/06/02 08:33:29;;;;;;;9.03;3.00;;;;;;;31.06;80.76;101049.59;1733268;80;21031;-89
2022/06/02 08:36:19;;;;;;;7.83;3.55;;;;;;;31.14;79.36;101051.38;1742383;80;21268;-91
2022/06/02 08:38:59;;;;;;;8.60;3.33;;;;;;;31.24;82.60;101052.61;1694522;81;21048;-91
2022/06/02 08:42:00;;;;;;;13.90;3.98;;;;;;;31.24;87.18;101053.45;1736024;80;21179;-92
2022/06/02 08:45:19;;;;;;;5.92;3.17;;;;;;;31.25;78.86;101060.97;1683865;83;21128;-92
2022/06/02 08:48:17;;;;;;;10.15;3.27;;;;;;;31.28;81.89;101050.54;1682161;82;21206;-92
2022/06/02 08:51:06;;;;;;;6.10;3.20;;;;;;;31.37;75.14;101053.63;1721068;81;22321;-90
2022/06/02 08:54:12;;;;;;;5.92;2.87;;;;;;;31.42;71.19;101054.24;1728009;81;20991;-90
2022/06/02 08:57:13;;;;;;;9.60;3.85;;;;;;;31.49;71.08;101056.78;1668417;82;21618;-90
2022/06/02 08:59:55;;;;;;;7.03;3.70;;;;;;;31.61;70.10;101045.38;1749528;80;21045;-91
2022/06/02 09:03:03;;;;;;;7.50;3.60;;;;;;;31.67;69.07;101054.38;1768867;79;21090;-92
2022/06/02 09:05:36;;;;;;;4.47;3.08;;;;;;;31.71;72.71;101046.92;1751819;80;21282;-92
2022/06/02 09:08:26;;;;;;;6.35;3.05;;;;;;;31.78;79.84;101054.28;1739301;79;21045;-91
2022/06/02 09:11:18;;;;;;;11.75;3.98;;;;;;;31.84;77.72;101049.00;1707272;80;21105;-91
2022/06/02 09:14:26;;;;;;;3.95;2.85;;;;;;;31.96;77.56;101049.69;1714909;81;21066;-90
2022/06/02 09:17:31;;;;;;;5.58;3.17;;;;;;;32.10;71.31;101052.30;1728207;81;21041;-91
2022/06/02 09:20:40;;;;;;;7.75;3.42;;;;;;;32.21;67.06;101052.44;1677838;81;21152;-90
2022/06/02 09:23:28;;;;;;;5.17;3.07;;;;;;;32.25;62.43;101044.98;1721806;81;21576;-90
2022/06/02 09:26:26;;;;;;;8.23;3.10;;;;;;;32.13;65.18;101042.90;1631257;84;21044;-89
2022/06/02 09:29:02;;;;;;;7.08;3.35;;;;;;;31.89;63.46;101051.20;1737174;79;21101;-89
2022/06/02 09:31:44;;;;;;;5.85;3.30;;;;;;;31.67;63.09;101054.38;1759734;79;21550;-91
2022/06/02 09:35:07;;;;;;;6.87;3.40;;;;;;;31.60;63.08;101042.44;1740993;80;21319;-89
2022/06/02 09:37:46;;;;;;;6.12;3.62;;;;;;;31.73;62.76;101045.34;1771213;79;21605;-89
2022/06/02 09:40:49;;;;;;;8.95;3.55;;;;;;;31.97;65.43;101045.94;1733784;81;21046;-89
2022/06/02 09:43:48;;;;;;;6.58;2.70;;;;;;;32.11;60.95;101050.44;1747379;79;21559;-90
2022/06/02 09:47:03;;;;;;;9.58;3.47;;;;;;;32.05;62.73;101050.89;1715896;81;21061;-90
2022/06/02 09:49:38;;;;;;;5.83;3.52;;;;;;;31.87;60.57;101039.89;1723835;80;22039;-90
2022/06/02 09:52:31;;;;;;;6.35;3.10;;;;;;;31.91;64.39;101049.09;1745204;79;21119;-90
2022/06/02 09:55:10;;;;;;;5.22;3.30;;;;;;;31.93;65.32;101041.58;1743625;79;21100;-89
2022/06/02 09:58:02;;;;;;;10.90;3.15;;;;;;;31.92;63.25;101037.80;1746759;79;21103;-90
2022/06/02 10:01:05;;;;;;;8.88;3.05;;;;;;;31.99;65.57;101037.09;1762208;79;21067;-91
2022/06/02 10:03:59;;;;;;;6.53;3.55;;;;;;;32.22;62.48;101040.63;1748602;79;21208;-89
2022/06/02 10:06:58;;;;;;;6.50;3.37;;;;;;;32.41;57.81;101042.47;1728553;79;20998;-89
2022/06/02 10:09:54;;;;;;;4.65;2.90;;;;;;;32.46;59.53;101045.75;1747727;79;21227;-89
2022/06/02 10:13:06;;;;;;;11.68;3.55;;;;;;;32.61;59.17;101042.42;1768498;79;21078;-90
2022/06/02 10:15:46;;;;;;;5.35;3.15;;;;;;;32.63;57.79;101041.09;1784422;79;22259;-88
2022/06/02 10:18:32;;;;;;;7.00;3.30;;;;;;;32.44;54.95;101043.84;1728716;80;21210;-89
2022/06/02 10:21:15;;;;;;;5.53;3.30;;;;;;;32.18;57.28;101044.84;1749216;79;21010;-89
2022/06/02 10:24:36;;;;;;;5.53;3.27;;;;;;;31.89;56.22;101039.63;1727693;80;21053;-89
2022/06/02 10:27:25;;;;;;;7.28;3.00;;;;;;;31.77;62.10;101037.05;1744266;80;21057;-91
2022/06/02 10:30:20;;;;;;;4.58;2.98;;;;;;;31.66;64.62;101028.50;1725415;80;21132;-90
2022/06/02 10:33:25;;;;;;;6.87;3.25;;;;;;;31.54;65.16;101033.47;1747288;80;21162;-89
2022/06/02 10:36:35;;;;;;;10.48;3.50;;;;;;;31.31;63.01;101031.75;1714221;81;21489;-90
2022/06/02 10:39:37;;;;;;;6.78;3.10;;;;;;;31.12;61.94;101030.66;1694218;81;21627;-89
2022/06/02 10:42:16;;;;;;;8.23;3.25;;;;;;;30.98;68.89;101025.25;1664098;83;21087;-89
2022/06/02 10:45:17;;;;;;;4.80;3.27;;;;;;;30.88;65.74;101023.75;1719492;81;21109;-89
2022/06/02 10:48:11;;;;;;;5.80;3.20;;;;;;;30.88;67.99;101016.49;1686492;81;21236;-90
2022/06/02 10:51:21;;;;;;;7.03;2.83;;;;;;;30.98;69.92;101019.36;1700646;82;21019;-89
2022/06/02 10:54:32;;;;;;;9.73;3.45;;;;;;;31.15;77.38;101006.50;1656912;83;21575;-89
2022/06/02 10:57:34;;;;;;;6.17;3.52;;;;;;;31.36;67.05;101006.30;1634439;86;21054;-88
2022/06/02 11:00:37;;;;;;;8.70;3.20;;;;;;;31.46;62.66;101006.43;1665609;81;21184;-88
2022/06/02 11:03:44;;;;;;;9.13;3.30;;;;;;;31.44;65.45;101009.92;1689438;81;21222;-89
2022/06/02 11:07:01;;;;;;;7.08;3.25;;;;;;;31.43;68.17;101009.63;1723418;81;21061;-89
2022/06/02 11:09:55;;;;;;;9.50;3.42;;;;;;;31.66;64.95;101004.28;1699951;81;21038;-90
2022/06/02 11:13:03;;;;;;;3.35;2.45;;;;;;;32.09;61.37;101006.23;1712122;81;21051;-90
2022/06/02 11:15:54;;;;;;;7.10;3.17;;;;;;;32.46;55.64;100999.95;1708431;81;21109;-90
2022/06/02 11:18:45;;;;;;;;;;;;;;;32.81;61.82;100998.72;1708315;81;21159;-90
2022/06/02 11:21:38;;;;;;;8.38;3.22;;;;;;;33.13;63.41;101001.95;1706828;81;20150;-90
2022/06/02 11:24:37;;;;;;;6.70;3.33;;;;;;;33.40;59.62;101001.08;1678905;83;21102;-89
2022/06/02 11:27:41;;;;;;;10.70;3.70;;;;;;;33.56;52.83;100997.41;1704274;82;21093;-90
2022/06/02 11:31:00;;;;;;;4.30;3.20;;;;;;;33.72;51.70;100988.86;1726231;81;21585;-89
2022/06/02 11:34:19;;;;;;;7.17;3.20;;;;;;;33.90;51.86;100994.38;1720701;81;21820;-90
2022/06/02 11:37:09;;;;;;;8.98;3.30;;;;;;;34.01;56.25;100996.57;1711665;80;21093;-89
2022/06/02 11:40:10;;;;;;;9.05;3.10;;;;;;;34.11;52.00;100990.39;1727626;81;21098;-90
2022/06/02 11:43:01;;;;;;;9.28;3.27;;;;;;;34.22;52.58;100990.70;1694947;82;21109;-90
2022/06/02 11:45:48;;;;;;;8.53;3.35;;;;;;;34.29;49.54;100991.81;1709493;81;21094;-90
2022/06/02 11:48:53;;;;;;;8.70;3.17;;;;;;;34.39;51.14;100987.00;1721158;80;21358;-90
2022/06/02 11:51:58;;;;;;;9.03;4.17;;;;;;;34.52;47.94;100994.58;1706850;82;21077;-88
2022/06/02 11:54:32;;;;;;;7.83;3.50;;;;;;;34.60;50.16;100992.70;1747107;80;20997;-89
2022/06/02 11:57:08;;;;;;;8.38;3.37;;;;;;;34.71;49.67;100984.61;1735854;80;21732;-89
2022/06/02 12:00:20;;;;;;;6.40;3.52;;;;;;;34.79;49.82;100975.13;1775218;79;21026;-90
2022/06/02 12:03:10;;;;;;;3.70;3.12;;;;;;;34.74;50.02;100978.64;1772503;79;21847;-90
2022/06/02 12:06:01;;;;;;;9.53;3.77;;;;;;;34.55;51.86;100977.01;1741071;80;21078;-89
2022/06/02 12:09:08;;;;;;;6.50;3.05;;;;;;;34.40;52.06;100974.56;1739119;80;21220;-90
2022/06/02 12:12:21;;;;;;;6.40;2.77;;;;;;;34.34;50.42;100968.84;1762375;78;21479;-89
2022/06/02 12:15:31;;;;;;;10.08;2.98;;;;;;;34.16;50.94;100958.53;1729929;80;21161;-88
2022/06/02 12:18:32;;;;;;;5.65;3.62;;;;;;;34.00;51.05;100964.44;1725731;80;21258;-89
2022/06/02 12:21:17;;;;;;;6.65;3.27;;;;;;;34.02;48.39;100955.50;1716950;80;21093;-89
2022/06/02 12:24:05;;;;;;;7.10;3.47;;;;;;;34.11;48.49;100951.22;1710977;81;21159;-88
2022/06/02 12:27:05;;;;;;;8.83;2.75;;;;;;;34.08;51.54;100945.02;1736162;80;21149;-89
2022/06/02 12:29:50;;;;;;;10.43;3.40;;;;;;;33.97;51.12;100950.38;1707576;81;21865;-89
2022/06/02 12:32:42;;;;;;;8.00;3.15;;;;;;;33.95;47.32;100945.77;1737249;80;21947;-89
2022/06/02 12:35:20;;;;;;;4.65;2.98;;;;;;;34.07;48.28;100933.94;1735051;81;21139;-91
2022/06/02 12:38:38;;;;;;;11.90;3.30;;;;;;;34.33;48.00;100928.04;1717162;81;21567;-89
2022/06/02 12:41:43;;;;;;;8.55;3.10;;;;;;;34.56;48.86;100909.70;1749895;80;21127;-88
2022/06/02 12:44:35;;;;;;;5.15;2.92;;;;;;;34.59;49.90;100914.03;1732216;79;21049;-89
2022/06/02 12:47:28;;;;;;;6.78;3.20;;;;;;;34.63;48.77;100905.39;1724705;80;21148;-88
2022/06/02 12:50:23;;;;;;;8.95;3.33;;;;;;;34.65;47.27;100899.17;1720642;80;21238;-88
2022/06/02 12:53:28;;;;;;;8.23;3.67;;;;;;;34.66;47.62;100898.07;1718253;80;21094;-88
2022/06/02 12:56:22;;;;;;;9.03;3.12;;;;;;;34.67;46.78;100891.06;1748825;80;21074;-90
2022/06/02 12:59:01;;;;;;;10.88;3.77;;;;;;;34.67;47.27;100890.23;1735943;79;21105;-87
2022/06/02 13:04:26;;;;;;;9.03;3.15;;;;;;;34.85;47.24;100879.42;1771405;79;21039;-88
2022/06/02 13:07:04;;;;;;;;;;;;;;;34.81;44.50;100877.80;1694529;80;21074;-89
2022/06/02 13:09:37;;;;;;;5.58;2.65;;;;;;;34.78;45.91;100872.94;1755312;79;20609;-89
2022/06/02 13:12:51;;;;;;;7.08;3.20;;;;;;;34.73;48.60;100882.41;1713418;81;47911;-88
2022/06/02 13:15:42;;;;;;;6.40;2.90;;;;;;;34.72;44.44;100880.78;1757706;79;21100;-88
2022/06/02 13:18:33;;;;;;;;;;;;;;;34.69;45.82;100884.02;1751870;80;21123;-92
2022/06/02 13:21:38;;;;;;;9.85;3.20;;;;;;;34.50;44.51;100892.67;1736809;80;20363;-92
2022/06/02 13:24:35;;;;;;;8.00;3.40;;;;;;;34.14;43.22;100889.91;1737278;78;21677;-88
2022/06/02 13:27:35;;;;;;;5.87;3.20;;;;;;;33.78;44.02;100893.31;1783049;79;21071;-89
2022/06/02 13:30:28;;;;;;;6.10;3.35;;;;;;;33.54;46.92;100884.83;1744909;79;21208;-89
2022/06/02 13:33:26;;;;;;;6.45;2.95;;;;;;;33.48;51.40;100880.50;1719148;81;21880;-90